Have a Safe July 4th! 

Flight Track Log - Related Links

Times and Time Zones

All times are in EDT time to prevent confusion due to time zone crossing. See the KAP927 flight status page for this flight to view local times or setup timezone preferences in your user account.

Time Position Orientation Groundspeed Altitude Reporting Facility
EDT Latitude Longitude Course Direction KTS MPH feet Rate Location/Type
Fri 05:29:00 PM 44.4902 -75.2947 149° Southeast  Level Estimated
Fri 05:29:25 PM 44.5833 -75.4161 149° Southeast 156 180 2,700  Level Boston Center
Fri 05:30:25 PM 44.5550 -75.3856 142° Southeast 144 166 3,300 550 Climbing Boston Center
Fri 05:31:25 PM 44.5244 -75.3608 150° Southeast 138 159 3,800 550 Climbing Boston Center
Fri 05:32:25 PM 44.4936 -75.3389 153° Southeast 133 153 4,400 450 Climbing Boston Center
Fri 05:33:25 PM 44.4633 -75.3053 142° Southeast 133 153 4,700 400 Climbing Boston Center
Fri 05:34:25 PM 44.4267 -75.2717 147° Southeast 145 167 5,200 550 Climbing Boston Center
Fri 05:35:25 PM 44.3939 -75.2439 149° Southeast 145 167 5,800 500 Climbing Boston Center
Fri 05:36:25 PM 44.3614 -75.2133 146° Southeast 140 161 6,200 450 Climbing Boston Center
Fri 05:37:25 PM 44.3267 -75.1825 148° Southeast 140 161 6,700 350 Climbing Boston Center
Fri 05:38:25 PM 44.2878 -75.1461 146° Southeast 145 167 6,900 150 Climbing Boston Center
Fri 05:39:25 PM 44.2469 -75.1122 149° Southeast 158 182 7,000 50 Climbing Boston Center
Fri 05:40:25 PM 44.2061 -75.0756 147° Southeast 171 197 7,000  Level Boston Center
Fri 05:41:25 PM 44.1633 -75.0361 147° Southeast 181 208 7,000  Level Boston Center
Fri 05:42:25 PM 44.1306 -75.0058 146° Southeast 181 208 7,000  Level Boston Center
Fri 05:43:25 PM 44.0919 -74.9694 146° Southeast 175 201 7,000  Level Boston Center
Fri 05:44:25 PM 44.0508 -74.9389 152° Southeast 175 201 7,000  Level Boston Center
Fri 05:45:25 PM 44.0142 -74.9028 145° Southeast 169 194 7,000  Level Boston Center
Fri 05:46:25 PM 43.9792 -74.8722 148° Southeast 163 188 7,000  Level Boston Center
Fri 05:47:25 PM 43.9406 -74.8361 146° Southeast 163 188 7,000  Level Boston Center
Fri 05:48:25 PM 43.9017 -74.8031 149° Southeast 163 188 7,000  Level Boston Center
Fri 05:49:25 PM 43.8667 -74.7728 148° Southeast 163 188 7,000  Level Boston Center
Fri 05:50:25 PM 43.8278 -74.7367 146° Southeast 163 188 7,000  Level Boston Center
Fri 05:51:25 PM 43.7911 -74.7036 147° Southeast 163 188 7,000  Level Boston Center
Fri 05:52:25 PM 43.7519 -74.6706 149° Southeast 163 188 7,000  Level Boston Center
Fri 05:53:25 PM 43.7153 -74.6375 147° Southeast 163 188 7,000  Level Boston Center
Fri 05:54:25 PM 43.6761 -74.6044 149° Southeast 163 188 7,000  Level Boston Center
Fri 05:55:25 PM 43.6394 -74.5717 147° Southeast 163 188 7,000  Level Boston Center
Fri 05:56:25 PM 43.6022 -74.5417 150° Southeast 163 188 7,000  Level Boston Center
Fri 05:57:25 PM 43.5656 -74.5089 147° Southeast 163 188 7,000  Level Boston Center
Fri 05:58:25 PM 43.5286 -74.4761 147° Southeast 163 188 7,000  Level Boston Center
Fri 05:59:30 PM 43.4808 -74.4631 169° South 149 171 7,000  Level Boston Center
Fri 06:00:25 PM 43.4456 -74.4447 159° South 152 175 7,000  Level Boston Center
Fri 06:01:37 PM 43.4003 -74.4261 163° South 152 175 7,000  Level Boston Center
Fri 06:02:37 PM 43.3525 -74.4075 164° South 152 175 7,000  Level Boston Center
Fri 06:03:37 PM 43.3111 -74.3919 165° South 152 175 7,000  Level Boston Center
Fri 06:04:37 PM 43.2739 -74.3736 160° South 152 175 7,000  Level Boston Center
Fri 06:05:37 PM 43.2369 -74.3411 147° Southeast 152 175 7,000 -145 Level Boston Center
Fri 06:06:41 PM 43.2000 -74.3028 143° Southeast 156 180 6,700 -300 Descending Boston Center
Fri 06:07:37 PM 43.1653 -74.2675 143° Southeast 162 186 6,400 -414 Descending Boston Center
Fri 06:08:37 PM 43.1303 -74.2294 142° Southeast 172 198 5,900 -450 Descending Boston Center
Fri 06:09:37 PM 43.0872 -74.1828 142° Southeast 177 204 5,500 -378 Descending Boston Center
Fri 06:10:44 PM 43.0483 -74.1361 139° Southeast 176 203 5,100 -250 Descending Boston Center
Fri 06:11:37 PM 43.0136 -74.0983 141° Southeast 177 204 5,000 -248 Descending Boston Center
Fri 06:12:45 PM 42.9767 -74.0519 137° Southeast 161 185 4,600 -419 Descending Boston Center
Fri 06:13:46 PM 42.9356 -74.0083 142° Southeast 181 208 4,100 -298 Descending Boston Center
Fri 06:14:46 PM 42.8967 -73.9678 143° Southeast 177 204 4,000 -52 Descending Boston Center
Fri 06:15:41 PM 42.8614 -73.9497 159° South 145 167 4,000  Level Boston Center
Fri 06:16:42 PM 42.8242 -73.9264 155° Southeast 148 170 4,000 -198 Level Boston Center
Fri 06:17:42 PM 42.7850 -73.9028 156° South 155 178 3,600 -496 Descending Boston Center
Fri 06:18:43 PM 42.7392 -73.8903 169° South 181 208 3,000 -787 Descending Boston Center
Fri 06:19:44 PM 42.7003 -73.8469 141° Southeast 190 219 2,000 -992 Descending Boston Center
Fri 06:20:44 PM 42.7089 -73.8075 73° East 146 168 1,000 -1,000 Descending Boston Center

Login

Don't have an account? Register now (free) for customized features, flight alerts, and more!